Time,TemperatureF,DewpointF,PressureIn,WindDirection,WindDirectionDegrees,WindSpeedMPH,WindSpeedGustMPH,Humidity,HourlyPrecipIn,Conditions,Clouds,dailyrainin,SolarRadiationWatts/m^2,SoftwareType,DateUTC
2013-07-25 00:01:00,81.3,79.2,29.96,South,180,3.1,3.1,93,0.00,,,0.00,298.0,meteobridge,2013-07-25 04:01:00,
2013-07-25 00:02:00,81.3,79.2,29.96,SW,225,3.1,3.1,93,0.00,,,0.00,298.0,meteobridge,2013-07-25 04:02:00,
2013-07-25 00:05:00,81.3,79.2,29.96,SW,225,3.1,3.1,93,0.00,,,0.00,298.0,meteobridge,2013-07-25 04:05:00,
2013-07-25 00:10:00,81.3,79.2,29.96,NW,315,2.2,3.1,93,0.00,,,0.00,298.0,meteobridge,2013-07-25 04:10:00,
2013-07-25 00:15:00,81.3,79.2,29.96,SW,225,2.2,3.1,93,0.00,,,0.00,298.0,meteobridge,2013-07-25 04:15:00,
2013-07-25 00:20:00,81.3,79.2,29.96,SW,225,2.2,2.2,93,0.00,,,0.00,298.0,meteobridge,2013-07-25 04:20:00,
2013-07-25 00:26:00,81.5,79.3,29.96,South,180,3.1,3.1,93,0.00,,,0.00,298.0,meteobridge,2013-07-25 04:26:00,
2013-07-25 00:31:00,81.5,79.3,29.96,SW,225,3.1,6.0,93,0.00,,,0.00,262.0,meteobridge,2013-07-25 04:31:00,
2013-07-25 00:36:00,81.7,79.5,29.95,SW,225,3.1,5.4,93,0.00,,,0.00,262.0,meteobridge,2013-07-25 04:36:00,
2013-07-25 00:41:00,81.7,79.7,29.96,West,270,4.5,5.4,94,0.01,,,0.01,262.0,meteobridge,2013-07-25 04:41:00,
2013-07-25 00:46:00,80.8,79.2,29.95,SW,225,3.8,9.2,95,0.04,,,0.04,262.0,meteobridge,2013-07-25 04:46:00,
2013-07-25 00:51:00,80.1,78.8,29.96,West,270,3.1,3.1,96,0.04,,,0.04,225.0,meteobridge,2013-07-25 04:51:00,
2013-07-25 00:57:00,79.5,79.0,29.96,WSW,248,9.8,9.8,98,0.04,,,0.04,225.0,meteobridge,2013-07-25 04:57:00,
2013-07-25 01:02:00,79.2,78.8,29.95,SW,225,4.5,5.4,99,0.04,,,0.04,225.0,meteobridge,2013-07-25 05:02:00,
2013-07-25 01:07:00,79.0,78.6,29.95,NW,315,0.7,5.4,99,0.04,,,0.04,225.0,meteobridge,2013-07-25 05:07:00,
2013-07-25 01:12:00,79.0,78.6,29.95,SW,225,1.6,2.2,99,0.04,,,0.04,225.0,meteobridge,2013-07-25 05:12:00,
2013-07-25 01:17:00,78.8,78.4,29.94,SW,225,1.6,2.2,99,0.04,,,0.04,225.0,meteobridge,2013-07-25 05:17:00,
2013-07-25 01:22:00,78.6,78.3,29.94,South,180,1.6,2.2,99,0.04,,,0.04,188.0,meteobridge,2013-07-25 05:22:00,
2013-07-25 01:28:00,78.6,78.3,29.94,SW,225,1.6,1.6,99,0.04,,,0.04,188.0,meteobridge,2013-07-25 05:28:00,
2013-07-25 01:33:00,78.4,78.1,29.94,South,180,2.2,2.2,99,0.04,,,0.04,188.0,meteobridge,2013-07-25 05:33:00,
2013-07-25 01:38:00,78.3,77.9,29.93,South,180,3.1,3.1,99,0.04,,,0.04,188.0,meteobridge,2013-07-25 05:38:00,
2013-07-25 01:43:00,78.4,78.1,29.93,SW,225,2.2,2.2,99,0.00,,,0.04,188.0,meteobridge,2013-07-25 05:43:00,
2013-07-25 01:48:00,78.4,78.1,29.93,South,180,1.6,2.2,99,0.00,,,0.04,188.0,meteobridge,2013-07-25 05:48:00,
2013-07-25 01:53:00,78.4,78.1,29.93,SW,225,0.7,0.7,99,0.00,,,0.04,152.0,meteobridge,2013-07-25 05:53:00,
2013-07-25 01:59:00,78.4,78.1,29.93,SW,225,0.7,0.7,99,0.00,,,0.04,152.0,meteobridge,2013-07-25 05:59:00,
2013-07-25 02:04:00,78.6,78.3,29.93,West,270,0.7,0.7,99,0.00,,,0.04,152.0,meteobridge,2013-07-25 06:04:00,
2013-07-25 02:09:00,78.6,78.3,29.93,West,270,0.7,0.7,99,0.00,,,0.04,152.0,meteobridge,2013-07-25 06:09:00,
2013-07-25 02:14:00,78.4,78.1,29.92,West,270,0.0,0.0,99,0.00,,,0.04,115.0,meteobridge,2013-07-25 06:14:00,
2013-07-25 02:19:00,78.4,78.1,29.93,South,180,0.0,0.0,99,0.00,,,0.04,115.0,meteobridge,2013-07-25 06:19:00,
2013-07-25 02:24:00,78.4,78.1,29.93,South,180,1.6,1.6,99,0.00,,,0.04,115.0,meteobridge,2013-07-25 06:24:00,
2013-07-25 02:30:00,78.4,78.1,29.93,SW,225,0.7,1.6,99,0.00,,,0.04,115.0,meteobridge,2013-07-25 06:30:00,
2013-07-25 02:35:00,78.4,78.1,29.92,South,180,0.7,1.6,99,0.00,,,0.04,115.0,meteobridge,2013-07-25 06:35:00,
2013-07-25 02:40:00,78.4,78.1,29.92,SE,135,0.7,1.6,99,0.00,,,0.04,115.0,meteobridge,2013-07-25 06:40:00,
2013-07-25 02:45:00,78.4,78.1,29.92,South,180,1.6,1.6,99,0.00,,,0.04,115.0,meteobridge,2013-07-25 06:45:00,
2013-07-25 02:50:00,78.4,78.1,29.92,South,180,0.0,0.0,99,0.00,,,0.04,78.0,meteobridge,2013-07-25 06:50:00,
2013-07-25 02:55:00,78.4,78.1,29.92,South,180,1.6,1.6,99,0.00,,,0.04,78.0,meteobridge,2013-07-25 06:55:00,
2013-07-25 03:01:00,78.4,78.1,29.92,South,180,1.6,1.6,99,0.00,,,0.04,78.0,meteobridge,2013-07-25 07:01:00,
2013-07-25 03:06:00,78.6,78.3,29.92,SW,225,1.6,1.6,99,0.00,,,0.04,78.0,meteobridge,2013-07-25 07:06:00,
2013-07-25 03:11:00,78.6,78.3,29.92,SW,225,1.6,1.6,99,0.00,,,0.04,78.0,meteobridge,2013-07-25 07:11:00,
2013-07-25 03:16:00,78.8,78.4,29.92,SW,225,1.6,1.6,99,0.00,,,0.04,78.0,meteobridge,2013-07-25 07:16:00,
2013-07-25 03:21:00,78.8,78.4,29.92,South,180,0.7,0.7,99,0.00,,,0.04,42.0,meteobridge,2013-07-25 07:21:00,
2013-07-25 03:26:00,78.8,78.4,29.92,SSW,203,3.1,3.1,99,0.00,,,0.04,42.0,meteobridge,2013-07-25 07:26:00,
2013-07-25 03:31:00,78.8,78.4,29.92,West,270,0.7,1.6,99,0.00,,,0.04,42.0,meteobridge,2013-07-25 07:31:00,
2013-07-25 03:37:00,79.0,78.6,29.92,West,270,2.2,2.2,99,0.00,,,0.04,42.0,meteobridge,2013-07-25 07:37:00,
2013-07-25 03:42:00,79.0,78.6,29.92,SW,225,1.6,1.6,99,0.00,,,0.04,42.0,meteobridge,2013-07-25 07:42:00,
2013-07-25 03:47:00,79.0,78.6,29.92,SSW,203,0.7,1.6,99,0.00,,,0.04,42.0,meteobridge,2013-07-25 07:47:00,
2013-07-25 03:52:00,79.0,78.6,29.92,South,180,1.6,1.6,99,0.00,,,0.04,5.0,meteobridge,2013-07-25 07:52:00,
2013-07-25 03:57:00,79.0,78.6,29.92,SW,225,0.7,1.6,99,0.00,,,0.04,5.0,meteobridge,2013-07-25 07:57:00,
2013-07-25 04:02:00,79.0,78.6,29.92,SW,225,0.7,2.2,99,0.00,,,0.04,5.0,meteobridge,2013-07-25 08:02:00,
2013-07-25 04:08:00,79.2,78.8,29.91,SW,225,0.7,0.7,99,0.00,,,0.04,5.0,meteobridge,2013-07-25 08:08:00,
2013-07-25 04:13:00,79.2,78.8,29.92,South,180,0.7,1.6,99,0.00,,,0.04,5.0,meteobridge,2013-07-25 08:13:00,
2013-07-25 04:18:00,79.2,78.8,29.92,South,180,0.7,1.6,99,0.00,,,0.04,5.0,meteobridge,2013-07-25 08:18:00,
2013-07-25 04:23:00,79.2,78.8,29.92,South,180,1.6,3.1,99,0.00,,,0.04,5.0,meteobridge,2013-07-25 08:23:00,
2013-07-25 04:28:00,79.2,78.8,29.91,South,180,0.7,0.7,99,0.00,,,0.04,5.0,meteobridge,2013-07-25 08:28:00,
2013-07-25 04:33:00,79.2,78.8,29.91,South,180,0.7,0.7,99,0.00,,,0.04,5.0,meteobridge,2013-07-25 08:33:00,
2013-07-25 04:39:00,79.2,78.8,29.91,South,180,0.0,0.7,99,0.00,,,0.04,5.0,meteobridge,2013-07-25 08:39:00,
2013-07-25 04:44:00,79.3,79.0,29.92,NW,315,0.7,2.2,99,0.00,,,0.04,5.0,meteobridge,2013-07-25 08:44:00,
2013-07-25 04:49:00,79.3,79.0,29.92,West,270,0.0,0.7,99,0.00,,,0.04,5.0,meteobridge,2013-07-25 08:49:00,
2013-07-25 04:54:00,79.3,79.0,29.92,West,270,1.6,1.6,99,0.00,,,0.04,5.0,meteobridge,2013-07-25 08:54:00,
2013-07-25 04:59:00,79.3,79.0,29.92,SW,225,0.7,1.6,99,0.00,,,0.04,5.0,meteobridge,2013-07-25 08:59:00,
2013-07-25 05:04:00,79.3,79.0,29.92,NW,315,1.6,3.8,99,0.00,,,0.04,5.0,meteobridge,2013-07-25 09:04:00,
2013-07-25 05:10:00,79.5,79.2,29.91,South,180,1.6,2.2,99,0.00,,,0.04,42.0,meteobridge,2013-07-25 09:10:00,
2013-07-25 05:15:00,79.5,79.2,29.91,SW,225,3.1,3.8,99,0.00,,,0.04,42.0,meteobridge,2013-07-25 09:15:00,
2013-07-25 05:20:00,79.7,79.3,29.92,SW,225,1.6,2.2,99,0.00,,,0.04,42.0,meteobridge,2013-07-25 09:20:00,
2013-07-25 05:25:00,79.7,79.3,29.92,NW,315,3.8,3.8,99,0.00,,,0.04,42.0,meteobridge,2013-07-25 09:25:00,
2013-07-25 05:30:00,79.7,79.3,29.92,South,180,3.8,3.8,99,0.00,,,0.04,78.0,meteobridge,2013-07-25 09:30:00,
2013-07-25 05:35:00,79.7,79.3,29.92,West,270,2.2,3.1,99,0.00,,,0.04,78.0,meteobridge,2013-07-25 09:35:00,
2013-07-25 05:41:00,79.9,79.5,29.92,SW,225,3.1,4.5,99,0.00,,,0.04,78.0,meteobridge,2013-07-25 09:41:00,
2013-07-25 05:46:00,79.9,79.5,29.93,SW,225,2.2,3.8,99,0.00,,,0.04,78.0,meteobridge,2013-07-25 09:46:00,
2013-07-25 05:51:00,80.1,79.7,29.93,West,270,2.2,2.2,99,0.00,,,0.04,78.0,meteobridge,2013-07-25 09:51:00,
2013-07-25 05:56:00,80.1,79.7,29.92,West,270,2.2,2.2,99,0.00,,,0.04,78.0,meteobridge,2013-07-25 09:56:00,
2013-07-25 06:01:00,79.9,79.5,29.92,West,270,1.6,3.8,99,0.00,,,0.04,115.0,meteobridge,2013-07-25 10:01:00,
2013-07-25 06:06:00,79.9,79.5,29.92,West,270,1.6,3.1,99,0.00,,,0.04,115.0,meteobridge,2013-07-25 10:06:00,
2013-07-25 06:12:00,79.9,79.5,29.93,SW,225,3.8,4.5,99,0.00,,,0.04,115.0,meteobridge,2013-07-25 10:12:00,
2013-07-25 06:17:00,79.9,79.5,29.93,West,270,3.8,3.8,99,0.00,,,0.04,115.0,meteobridge,2013-07-25 10:17:00,
2013-07-25 06:22:00,80.1,79.7,29.93,West,270,1.6,1.6,99,0.00,,,0.04,152.0,meteobridge,2013-07-25 10:22:00,
2013-07-25 06:27:00,80.1,79.7,29.93,West,270,4.5,4.5,99,0.00,,,0.04,152.0,meteobridge,2013-07-25 10:27:00,
2013-07-25 06:32:00,80.1,79.7,29.93,SW,225,3.1,5.4,99,0.00,,,0.04,152.0,meteobridge,2013-07-25 10:32:00,
2013-07-25 06:37:00,80.1,79.7,29.93,West,270,3.8,5.4,99,0.00,,,0.04,152.0,meteobridge,2013-07-25 10:37:00,
2013-07-25 06:43:00,79.9,79.5,29.94,NW,315,1.6,2.2,99,0.00,,,0.04,152.0,meteobridge,2013-07-25 10:43:00,
2013-07-25 06:48:00,79.7,79.3,29.94,WSW,248,3.1,3.1,99,0.00,,,0.04,152.0,meteobridge,2013-07-25 10:48:00,
2013-07-25 06:53:00,79.7,79.3,29.94,South,180,1.6,3.8,99,0.00,,,0.04,188.0,meteobridge,2013-07-25 10:53:00,
2013-07-25 06:58:00,79.7,79.3,29.94,NW,315,3.1,5.4,99,0.00,,,0.04,188.0,meteobridge,2013-07-25 10:58:00,
2013-07-25 07:03:00,79.7,79.3,29.94,West,270,2.2,3.1,99,0.00,,,0.04,188.0,meteobridge,2013-07-25 11:03:00,
2013-07-25 07:08:00,79.9,79.5,29.94,West,270,2.2,2.2,99,0.00,,,0.04,188.0,meteobridge,2013-07-25 11:08:00,
2013-07-25 07:14:00,80.1,79.7,29.95,West,270,1.6,1.6,99,0.00,,,0.04,188.0,meteobridge,2013-07-25 11:14:00,
2013-07-25 07:19:00,80.2,79.9,29.95,West,270,3.1,4.5,99,0.00,,,0.04,188.0,meteobridge,2013-07-25 11:19:00,
2013-07-25 07:24:00,80.4,80.1,29.95,SW,225,3.1,3.8,99,0.00,,,0.04,225.0,meteobridge,2013-07-25 11:24:00,
2013-07-25 07:29:00,80.6,80.2,29.95,South,180,3.8,4.5,99,0.00,,,0.04,225.0,meteobridge,2013-07-25 11:29:00,
2013-07-25 07:34:00,80.6,80.2,29.95,ESE,113,3.1,3.8,99,0.00,,,0.04,225.0,meteobridge,2013-07-25 11:34:00,
2013-07-25 07:40:00,80.6,80.2,29.96,South,180,2.2,3.1,99,0.00,,,0.04,262.0,meteobridge,2013-07-25 11:40:00,
2013-07-25 07:45:00,80.8,80.4,29.96,West,270,3.1,3.8,99,0.00,,,0.04,262.0,meteobridge,2013-07-25 11:45:00,
2013-07-25 07:50:00,80.8,80.4,29.96,West,270,3.1,6.0,99,0.00,,,0.04,262.0,meteobridge,2013-07-25 11:50:00,
2013-07-25 07:55:00,80.8,80.4,29.96,West,270,3.1,6.0,99,0.00,,,0.04,262.0,meteobridge,2013-07-25 11:55:00,
2013-07-25 08:00:00,80.8,80.4,29.96,West,270,3.8,5.4,99,0.00,,,0.04,298.0,meteobridge,2013-07-25 12:00:00,
2013-07-25 08:05:00,80.8,80.4,29.96,NW,315,3.8,3.8,99,0.00,,,0.04,298.0,meteobridge,2013-07-25 12:05:00,
2013-07-25 08:11:00,80.8,80.4,29.96,West,270,1.6,3.8,99,0.00,,,0.04,298.0,meteobridge,2013-07-25 12:11:00,
2013-07-25 08:16:00,80.8,80.4,29.96,West,270,5.4,5.4,99,0.00,,,0.04,298.0,meteobridge,2013-07-25 12:16:00,
2013-07-25 08:21:00,81.0,80.6,29.97,SW,225,5.4,5.4,99,0.00,,,0.04,335.0,meteobridge,2013-07-25 12:21:00,
2013-07-25 08:26:00,81.1,80.8,29.97,West,270,5.4,5.4,99,0.00,,,0.04,335.0,meteobridge,2013-07-25 12:26:00,
2013-07-25 08:31:00,81.1,80.8,29.97,NW,315,6.9,7.6,99,0.00,,,0.04,371.0,meteobridge,2013-07-25 12:31:00,
2013-07-25 08:36:00,81.3,81.0,29.97,West,270,2.2,5.4,99,0.00,,,0.04,371.0,meteobridge,2013-07-25 12:36:00,
2013-07-25 08:42:00,81.5,81.1,29.97,South,180,3.1,4.5,99,0.00,,,0.04,408.0,meteobridge,2013-07-25 12:42:00,
2013-07-25 08:47:00,81.5,81.1,29.97,SW,225,1.6,3.8,99,0.00,,,0.04,408.0,meteobridge,2013-07-25 12:47:00,
2013-07-25 08:52:00,81.5,81.1,29.97,West,270,3.8,5.4,99,0.00,,,0.04,408.0,meteobridge,2013-07-25 12:52:00,
2013-07-25 08:57:00,81.7,81.3,29.98,WSW,248,3.8,6.9,99,0.00,,,0.04,408.0,meteobridge,2013-07-25 12:57:00,
2013-07-25 09:02:00,81.9,81.5,29.98,West,270,3.8,3.8,99,0.00,,,0.04,445.0,meteobridge,2013-07-25 13:02:00,
2013-07-25 09:07:00,82.0,81.7,29.98,SW,225,4.5,4.5,99,0.00,,,0.04,445.0,meteobridge,2013-07-25 13:07:00,
2013-07-25 09:12:00,82.2,81.9,29.98,West,270,4.5,4.5,99,0.00,,,0.04,481.0,meteobridge,2013-07-25 13:12:00,
2013-07-25 09:17:00,82.4,82.0,29.98,West,270,3.1,6.0,99,0.00,,,0.04,481.0,meteobridge,2013-07-25 13:17:00,
2013-07-25 09:23:00,82.8,82.4,29.98,West,270,3.1,4.5,99,0.00,,,0.04,481.0,meteobridge,2013-07-25 13:23:00,
2013-07-25 09:28:00,82.8,82.4,29.98,SW,225,6.0,6.0,99,0.00,,,0.04,481.0,meteobridge,2013-07-25 13:28:00,
2013-07-25 09:33:00,82.9,82.4,29.98,NW,315,5.4,6.9,98,0.00,,,0.04,481.0,meteobridge,2013-07-25 13:33:00,
2013-07-25 09:38:00,83.3,82.4,29.99,SE,135,5.4,6.0,97,0.00,,,0.04,481.0,meteobridge,2013-07-25 13:38:00,
2013-07-25 09:43:00,83.7,82.4,29.99,NW,315,6.9,6.9,96,0.00,,,0.04,481.0,meteobridge,2013-07-25 13:43:00,
2013-07-25 09:48:00,83.8,82.2,29.99,SW,225,6.0,7.6,95,0.00,,,0.04,481.0,meteobridge,2013-07-25 13:48:00,
2013-07-25 09:54:00,84.0,82.0,29.99,West,270,3.1,7.6,94,0.00,,,0.04,408.0,meteobridge,2013-07-25 13:54:00,
2013-07-25 09:59:00,84.4,82.0,30.00,North,0,5.4,5.4,93,0.00,,,0.04,408.0,meteobridge,2013-07-25 13:59:00,
2013-07-25 10:04:00,84.7,82.2,30.00,NW,315,9.2,9.2,92,0.00,,,0.04,371.0,meteobridge,2013-07-25 14:04:00,
2013-07-25 10:09:00,84.9,82.0,30.00,NW,315,5.4,8.3,91,0.00,,,0.04,371.0,meteobridge,2013-07-25 14:09:00,
2013-07-25 10:14:00,84.9,82.0,30.00,SW,225,6.0,7.6,91,0.00,,,0.04,298.0,meteobridge,2013-07-25 14:14:00,
2013-07-25 10:20:00,85.3,82.0,30.00,SW,225,6.0,6.0,90,0.00,,,0.04,298.0,meteobridge,2013-07-25 14:20:00,
2013-07-25 10:25:00,85.5,81.5,30.00,West,270,10.7,10.7,88,0.00,,,0.04,298.0,meteobridge,2013-07-25 14:25:00,
2013-07-25 10:30:00,85.6,81.3,30.01,West,270,6.0,8.3,87,0.00,,,0.04,262.0,meteobridge,2013-07-25 14:30:00,
2013-07-25 11:13:00,86.9,80.4,30.02,NNW,338,4.5,4.5,81,0.00,,,0.04,1067.0,meteobridge,2013-07-25 15:13:00,
2013-07-25 11:18:00,86.9,80.4,30.02,East,90,8.3,8.3,81,0.00,,,0.04,1067.0,meteobridge,2013-07-25 15:18:00,
2013-07-25 11:23:00,87.4,81.0,30.02,WNW,293,7.6,7.6,81,0.00,,,0.04,994.0,meteobridge,2013-07-25 15:23:00,
2013-07-25 11:28:00,88.3,79.3,30.02,West,270,7.6,9.8,75,0.00,,,0.04,994.0,meteobridge,2013-07-25 15:28:00,
2013-07-25 11:33:00,88.7,78.4,30.03,NW,315,9.2,11.4,72,0.00,,,0.04,921.0,meteobridge,2013-07-25 15:33:00,
2013-07-25 11:38:00,89.1,78.8,30.03,NW,315,7.6,7.6,72,0.00,,,0.04,921.0,meteobridge,2013-07-25 15:38:00,
2013-07-25 11:44:00,89.2,79.0,30.02,West,270,7.6,9.2,72,0.00,,,0.04,847.0,meteobridge,2013-07-25 15:44:00,
2013-07-25 11:49:00,90.0,79.3,30.03,NW,315,4.5,11.4,71,0.00,,,0.04,811.0,meteobridge,2013-07-25 15:49:00,
2013-07-25 11:54:00,90.7,80.1,30.03,West,270,7.6,7.6,71,0.00,,,0.04,811.0,meteobridge,2013-07-25 15:54:00,
2013-07-25 11:59:00,90.5,79.9,30.03,SW,225,9.8,9.8,71,0.00,,,0.04,774.0,meteobridge,2013-07-25 15:59:00,
2013-07-25 12:04:00,90.0,78.8,30.02,ENE,68,7.6,13.0,70,0.00,,,0.04,774.0,meteobridge,2013-07-25 16:04:00,
2013-07-25 12:09:00,89.8,78.6,30.03,NE,45,9.2,9.2,70,0.00,,,0.04,774.0,meteobridge,2013-07-25 16:09:00,
2013-07-25 12:15:00,89.8,78.6,30.03,NW,315,6.0,6.0,70,0.00,,,0.04,774.0,meteobridge,2013-07-25 16:15:00,
2013-07-25 12:20:00,89.6,79.0,30.02,West,270,4.5,4.5,71,0.00,,,0.04,811.0,meteobridge,2013-07-25 16:20:00,
2013-07-25 12:25:00,89.4,78.8,30.02,West,270,8.3,8.3,71,0.00,,,0.04,811.0,meteobridge,2013-07-25 16:25:00,
2013-07-25 12:30:00,89.2,78.6,30.02,West,270,7.6,7.6,71,0.00,,,0.04,847.0,meteobridge,2013-07-25 16:30:00,
2013-07-25 12:35:00,89.4,78.8,30.02,SW,225,4.5,8.3,71,0.00,,,0.04,847.0,meteobridge,2013-07-25 16:35:00,
2013-07-25 12:40:00,90.0,79.3,30.02,West,270,4.5,9.8,71,0.00,,,0.04,884.0,meteobridge,2013-07-25 16:40:00,
2013-07-25 12:46:00,90.3,78.8,30.02,West,270,7.6,8.3,69,0.00,,,0.04,884.0,meteobridge,2013-07-25 16:46:00,
2013-07-25 12:51:00,90.3,78.3,30.03,South,180,6.0,8.3,68,0.00,,,0.04,884.0,meteobridge,2013-07-25 16:51:00,
2013-07-25 12:56:00,89.8,78.6,30.02,WSW,248,5.4,6.9,70,0.00,,,0.04,884.0,meteobridge,2013-07-25 16:56:00,
2013-07-25 13:01:00,89.4,77.9,30.02,South,180,6.0,7.6,69,0.00,,,0.04,847.0,meteobridge,2013-07-25 17:01:00,
2013-07-25 13:06:00,89.1,78.4,30.03,SW,225,2.2,8.3,71,0.00,,,0.04,847.0,meteobridge,2013-07-25 17:06:00,
2013-07-25 13:11:00,88.9,78.3,30.03,SW,225,6.0,9.8,71,0.00,,,0.04,811.0,meteobridge,2013-07-25 17:11:00,
2013-07-25 13:17:00,88.7,78.4,30.02,NW,315,8.3,11.4,72,0.00,,,0.04,811.0,meteobridge,2013-07-25 17:17:00,
2013-07-25 13:22:00,88.5,78.3,30.02,West,270,6.0,8.3,72,0.00,,,0.04,811.0,meteobridge,2013-07-25 17:22:00,
2013-07-25 13:27:00,88.3,78.6,30.02,SW,225,9.2,9.2,73,0.00,,,0.04,811.0,meteobridge,2013-07-25 17:27:00,
2013-07-25 13:32:00,88.5,78.8,30.02,WSW,248,3.8,5.4,73,0.00,,,0.04,811.0,meteobridge,2013-07-25 17:32:00,
2013-07-25 13:37:00,88.3,77.7,30.03,NW,315,8.3,8.3,71,0.00,,,0.04,811.0,meteobridge,2013-07-25 17:37:00,
2013-07-25 13:43:00,88.3,77.7,30.02,NW,315,8.3,8.3,71,0.00,,,0.04,847.0,meteobridge,2013-07-25 17:43:00,
2013-07-25 13:48:00,88.2,77.5,30.02,SW,225,6.9,10.7,71,0.00,,,0.04,847.0,meteobridge,2013-07-25 17:48:00,
2013-07-25 13:53:00,88.2,77.9,30.02,SW,225,5.4,6.0,72,0.00,,,0.04,847.0,meteobridge,2013-07-25 17:53:00,
2013-07-25 13:58:00,88.2,77.9,30.02,West,270,9.2,9.8,72,0.00,,,0.04,847.0,meteobridge,2013-07-25 17:58:00,
2013-07-25 14:03:00,88.0,77.4,30.02,West,270,8.3,9.8,71,0.00,,,0.04,884.0,meteobridge,2013-07-25 18:03:00,
2013-07-25 14:08:00,88.0,77.9,30.02,SW,225,7.6,9.8,72,0.00,,,0.04,884.0,meteobridge,2013-07-25 18:08:00,
2013-07-25 14:14:00,88.3,77.4,30.02,NW,315,7.6,9.8,70,0.00,,,0.04,921.0,meteobridge,2013-07-25 18:14:00,
2013-07-25 14:19:00,88.5,77.0,30.02,SW,225,8.3,10.7,69,0.00,,,0.04,921.0,meteobridge,2013-07-25 18:19:00,
2013-07-25 14:24:00,88.7,77.7,30.02,West,270,10.7,10.7,70,0.00,,,0.04,921.0,meteobridge,2013-07-25 18:24:00,
2013-07-25 14:29:00,89.1,77.2,30.02,SW,225,9.2,9.2,68,0.00,,,0.04,957.0,meteobridge,2013-07-25 18:29:00,
2013-07-25 14:34:00,89.2,77.4,30.02,SSW,203,7.6,9.2,68,0.00,,,0.04,957.0,meteobridge,2013-07-25 18:34:00,
2013-07-25 14:39:00,89.1,77.2,30.02,West,270,7.6,7.6,68,0.00,,,0.04,957.0,meteobridge,2013-07-25 18:39:00,
2013-07-25 14:45:00,88.9,77.0,30.02,ESE,113,4.5,9.8,68,0.00,,,0.04,957.0,meteobridge,2013-07-25 18:45:00,
2013-07-25 14:50:00,88.7,76.8,30.02,SW,225,10.7,12.1,68,0.00,,,0.04,994.0,meteobridge,2013-07-25 18:50:00,
2013-07-25 14:55:00,88.5,77.5,30.02,NW,315,13.6,13.6,70,0.00,,,0.04,994.0,meteobridge,2013-07-25 18:55:00,
2013-07-25 15:00:00,88.3,76.8,30.02,West,270,9.8,10.7,69,0.00,,,0.04,994.0,meteobridge,2013-07-25 19:00:00,
2013-07-25 15:05:00,88.3,76.8,30.02,North,0,6.9,9.8,69,0.00,,,0.04,994.0,meteobridge,2013-07-25 19:05:00,
2013-07-25 15:10:00,88.3,77.4,30.01,NW,315,7.6,11.4,70,0.00,,,0.04,1030.0,meteobridge,2013-07-25 19:10:00,
2013-07-25 15:16:00,88.5,75.7,30.01,NW,315,8.3,8.3,66,0.00,,,0.04,1030.0,meteobridge,2013-07-25 19:16:00,
2013-07-25 15:21:00,88.3,75.6,30.01,NW,315,7.6,11.4,66,0.00,,,0.04,1067.0,meteobridge,2013-07-25 19:21:00,
2013-07-25 15:26:00,88.3,75.9,30.01,South,180,5.4,10.7,67,0.00,,,0.04,1067.0,meteobridge,2013-07-25 19:26:00,
2013-07-25 15:31:00,88.3,75.0,30.01,NW,315,9.2,9.2,65,0.00,,,0.04,1104.0,meteobridge,2013-07-25 19:31:00,
2013-07-25 15:36:00,88.3,74.7,30.01,North,0,3.8,6.9,64,0.00,,,0.04,1104.0,meteobridge,2013-07-25 19:36:00,
2013-07-25 15:41:00,88.3,74.1,30.01,SW,225,5.4,9.2,63,0.00,,,0.04,1104.0,meteobridge,2013-07-25 19:41:00,
2013-07-25 15:47:00,88.3,74.7,30.01,SW,225,4.5,4.5,64,0.00,,,0.04,1104.0,meteobridge,2013-07-25 19:47:00,
2013-07-25 15:52:00,88.2,75.7,30.01,NW,315,7.6,7.6,67,0.00,,,0.04,1140.0,meteobridge,2013-07-25 19:52:00,
2013-07-25 15:57:00,88.0,75.6,30.01,SW,225,4.5,10.7,67,0.00,,,0.04,1140.0,meteobridge,2013-07-25 19:57:00,
2013-07-25 16:02:00,88.0,75.6,30.01,SW,225,6.0,7.6,67,0.00,,,0.04,1140.0,meteobridge,2013-07-25 20:02:00,
2013-07-25 16:07:00,88.0,76.1,30.01,North,0,6.9,6.9,68,0.00,,,0.04,1140.0,meteobridge,2013-07-25 20:07:00,
2013-07-25 16:12:00,88.0,76.1,30.00,NW,315,7.6,7.6,68,0.00,,,0.04,1177.0,meteobridge,2013-07-25 20:12:00,
2013-07-25 16:13:00,88.2,76.3,30.01,West,270,5.4,7.6,68,0.00,,,0.04,1177.0,meteobridge,2013-07-25 20:13:00,
2013-07-25 16:18:00,88.2,76.3,30.01,West,270,5.4,9.8,68,0.00,,,0.04,1177.0,meteobridge,2013-07-25 20:18:00,
2013-07-25 16:23:00,88.3,75.9,30.01,South,180,6.0,6.0,67,0.00,,,0.04,1177.0,meteobridge,2013-07-25 20:23:00,
2013-07-25 16:29:00,88.5,75.2,30.01,NW,315,5.4,5.4,65,0.00,,,0.04,1177.0,meteobridge,2013-07-25 20:29:00,
2013-07-25 16:34:00,88.9,76.1,30.01,NW,315,3.8,6.9,66,0.00,,,0.04,1213.0,meteobridge,2013-07-25 20:34:00,
2013-07-25 16:39:00,89.1,75.7,30.01,West,270,4.5,7.6,65,0.00,,,0.04,1213.0,meteobridge,2013-07-25 20:39:00,
2013-07-25 16:44:00,89.1,76.6,30.00,North,0,3.1,5.4,67,0.00,,,0.04,1213.0,meteobridge,2013-07-25 20:44:00,
2013-07-25 16:49:00,88.9,77.4,30.00,NE,45,9.2,9.2,69,0.00,,,0.04,1250.0,meteobridge,2013-07-25 20:49:00,
2013-07-25 16:54:00,89.1,77.2,30.00,NW,315,6.9,6.9,68,0.00,,,0.04,1250.0,meteobridge,2013-07-25 20:54:00,
2013-07-25 17:00:00,90.5,77.2,29.99,NW,315,7.6,7.6,65,0.00,,,0.04,1250.0,meteobridge,2013-07-25 21:00:00,
2013-07-25 17:05:00,91.2,76.8,29.99,SW,225,7.6,7.6,63,0.00,,,0.04,1250.0,meteobridge,2013-07-25 21:05:00,
2013-07-25 17:10:00,91.0,76.6,29.99,North,0,10.7,10.7,63,0.00,,,0.04,1213.0,meteobridge,2013-07-25 21:10:00,
2013-07-25 17:15:00,90.7,76.3,30.00,SW,225,6.0,8.3,63,0.00,,,0.04,1213.0,meteobridge,2013-07-25 21:15:00,
2013-07-25 17:20:00,89.8,76.5,29.99,West,270,6.9,6.9,65,0.00,,,0.04,1177.0,meteobridge,2013-07-25 21:20:00,
2013-07-25 17:25:00,89.6,77.2,29.99,SSW,203,6.0,7.6,67,0.00,,,0.04,1177.0,meteobridge,2013-07-25 21:25:00,
2013-07-25 17:31:00,89.6,76.3,30.00,WNW,293,8.3,9.2,65,0.00,,,0.04,1140.0,meteobridge,2013-07-25 21:31:00,
2013-07-25 17:36:00,89.2,75.4,30.00,West,270,13.0,13.6,64,0.00,,,0.04,1140.0,meteobridge,2013-07-25 21:36:00,
2013-07-25 17:41:00,88.5,76.1,30.00,SW,225,7.6,9.2,67,0.00,,,0.04,1140.0,meteobridge,2013-07-25 21:41:00,
2013-07-25 17:46:00,88.3,76.5,29.99,North,0,6.0,7.6,68,0.00,,,0.04,1140.0,meteobridge,2013-07-25 21:46:00,
2013-07-25 17:51:00,88.5,76.1,30.00,SW,225,7.6,10.7,67,0.00,,,0.04,1140.0,meteobridge,2013-07-25 21:51:00,
2013-07-25 17:56:00,88.3,76.5,29.99,West,270,4.5,10.7,68,0.00,,,0.04,1140.0,meteobridge,2013-07-25 21:56:00,
2013-07-25 18:01:00,88.0,76.5,29.99,West,270,6.9,6.9,69,0.00,,,0.04,1177.0,meteobridge,2013-07-25 22:01:00,
2013-07-25 18:06:00,88.0,77.0,29.99,West,270,4.5,7.6,70,0.00,,,0.04,1177.0,meteobridge,2013-07-25 22:06:00,
2013-07-25 18:12:00,87.6,77.0,29.99,East,90,4.5,10.7,71,0.00,,,0.04,1177.0,meteobridge,2013-07-25 22:12:00,
2013-07-25 18:17:00,87.3,76.6,29.99,SW,225,5.4,6.0,71,0.00,,,0.04,1177.0,meteobridge,2013-07-25 22:17:00,
2013-07-25 18:22:00,86.7,76.6,29.98,West,270,7.6,9.8,72,0.00,,,0.04,1213.0,meteobridge,2013-07-25 22:22:00,
2013-07-25 18:27:00,86.5,76.8,29.99,South,180,6.0,6.0,73,0.00,,,0.04,1213.0,meteobridge,2013-07-25 22:27:00,
2013-07-25 18:32:00,86.2,77.4,29.99,West,270,6.0,9.2,75,0.00,,,0.04,1250.0,meteobridge,2013-07-25 22:32:00,
2013-07-25 18:37:00,86.0,77.2,29.99,West,270,10.7,10.7,75,0.00,,,0.04,1250.0,meteobridge,2013-07-25 22:37:00,
2013-07-25 18:43:00,86.2,77.7,29.98,South,180,3.1,4.5,76,0.00,,,0.04,1250.0,meteobridge,2013-07-25 22:43:00,
2013-07-25 18:48:00,86.0,77.5,29.99,SW,225,6.9,7.6,76,0.00,,,0.04,1250.0,meteobridge,2013-07-25 22:48:00,
2013-07-25 18:53:00,86.0,77.5,29.99,NW,315,3.8,6.0,76,0.00,,,0.04,1213.0,meteobridge,2013-07-25 22:53:00,
2013-07-25 18:58:00,85.8,77.7,29.99,NW,315,3.1,3.8,77,0.00,,,0.04,1213.0,meteobridge,2013-07-25 22:58:00,
2013-07-25 19:03:00,85.8,77.7,29.99,SW,225,11.4,11.4,77,0.00,,,0.04,1140.0,meteobridge,2013-07-25 23:03:00,
2013-07-25 19:08:00,85.5,77.4,29.99,WSW,248,6.0,6.0,77,0.00,,,0.04,1140.0,meteobridge,2013-07-25 23:08:00,
2013-07-25 19:14:00,85.3,77.2,29.99,WNW,293,5.4,6.9,77,0.00,,,0.04,1104.0,meteobridge,2013-07-25 23:14:00,
2013-07-25 19:19:00,85.1,77.5,29.99,SW,225,8.3,8.3,78,0.00,,,0.04,1104.0,meteobridge,2013-07-25 23:19:00,
2013-07-25 19:24:00,84.9,77.4,29.99,SW,225,6.9,7.6,78,0.00,,,0.04,1104.0,meteobridge,2013-07-25 23:24:00,
2013-07-25 19:29:00,84.7,77.5,29.99,South,180,5.4,6.0,79,0.00,,,0.04,1104.0,meteobridge,2013-07-25 23:29:00,
2013-07-25 19:34:00,84.6,77.4,29.99,SW,225,3.8,3.8,79,0.00,,,0.04,1104.0,meteobridge,2013-07-25 23:34:00,
2013-07-25 19:39:00,84.6,77.4,29.99,SW,225,5.4,9.2,79,0.00,,,0.04,1140.0,meteobridge,2013-07-25 23:39:00,
2013-07-25 19:45:00,84.6,77.7,29.99,South,180,3.1,4.5,80,0.00,,,0.04,1140.0,meteobridge,2013-07-25 23:45:00,
2013-07-25 19:50:00,84.4,77.5,29.99,WSW,248,5.4,6.0,80,0.00,,,0.04,1140.0,meteobridge,2013-07-25 23:50:00,
2013-07-25 19:55:00,84.6,78.1,29.99,SE,135,5.4,5.4,81,0.00,,,0.04,1140.0,meteobridge,2013-07-25 23:55:00,
2013-07-25 20:00:00,84.2,77.7,29.99,North,0,6.9,6.9,81,0.00,,,0.04,1140.0,meteobridge,2013-07-26 00:00:00,
2013-07-25 20:05:00,83.8,77.7,29.99,SW,225,3.8,3.8,82,0.00,,,0.04,1140.0,meteobridge,2013-07-26 00:05:00,
2013-07-25 20:10:00,83.7,77.9,29.99,East,90,5.4,5.4,83,0.00,,,0.04,1140.0,meteobridge,2013-07-26 00:10:00,
2013-07-25 20:16:00,83.7,77.9,29.99,West,270,3.1,4.5,83,0.00,,,0.04,1140.0,meteobridge,2013-07-26 00:16:00,
2013-07-25 20:21:00,83.7,78.3,29.99,SW,225,6.0,6.0,84,0.00,,,0.04,1177.0,meteobridge,2013-07-26 00:21:00,
2013-07-25 20:26:00,83.7,78.3,29.99,SW,225,4.5,4.5,84,0.00,,,0.04,1177.0,meteobridge,2013-07-26 00:26:00,
2013-07-25 20:31:00,83.5,78.4,29.99,West,270,3.8,5.4,85,0.00,,,0.04,1177.0,meteobridge,2013-07-26 00:31:00,
2013-07-25 20:36:00,83.5,78.4,29.99,NW,315,2.2,5.4,85,0.00,,,0.04,1177.0,meteobridge,2013-07-26 00:36:00,
2013-07-25 20:42:00,83.3,78.6,29.99,SW,225,5.4,6.0,86,0.00,,,0.04,1177.0,meteobridge,2013-07-26 00:42:00,
2013-07-25 20:47:00,83.3,78.6,29.98,SW,225,3.8,6.0,86,0.00,,,0.04,1177.0,meteobridge,2013-07-26 00:47:00,
2013-07-25 20:52:00,83.1,78.8,29.98,West,270,6.0,10.7,87,0.00,,,0.04,1177.0,meteobridge,2013-07-26 00:52:00,
2013-07-25 20:57:00,83.1,78.8,29.98,West,270,4.5,6.0,87,0.00,,,0.04,1177.0,meteobridge,2013-07-26 00:57:00,
2013-07-25 21:02:00,83.1,78.8,29.98,West,270,3.8,6.9,87,0.00,,,0.04,1177.0,meteobridge,2013-07-26 01:02:00,
2013-07-25 21:08:00,83.1,78.8,29.99,West,270,3.8,3.8,87,0.00,,,0.04,1177.0,meteobridge,2013-07-26 01:08:00,
2013-07-25 21:13:00,83.1,78.8,29.99,West,270,8.3,8.3,87,0.00,,,0.04,1177.0,meteobridge,2013-07-26 01:13:00,
2013-07-25 21:18:00,83.1,78.8,29.99,SW,225,7.6,10.7,87,0.00,,,0.04,1177.0,meteobridge,2013-07-26 01:18:00,
2013-07-25 21:23:00,83.3,79.0,29.99,South,180,4.5,7.6,87,0.00,,,0.04,1177.0,meteobridge,2013-07-26 01:23:00,
2013-07-25 21:28:00,83.1,78.8,29.99,West,270,4.5,11.4,87,0.00,,,0.04,1177.0,meteobridge,2013-07-26 01:28:00,
2013-07-25 21:33:00,83.1,78.8,29.99,NW,315,3.8,5.4,87,0.00,,,0.04,1177.0,meteobridge,2013-07-26 01:33:00,
2013-07-25 21:39:00,83.1,78.8,29.98,WSW,248,6.0,8.3,87,0.00,,,0.04,1177.0,meteobridge,2013-07-26 01:39:00,
2013-07-25 21:44:00,83.1,79.2,29.98,South,180,4.5,6.9,88,0.00,,,0.04,1177.0,meteobridge,2013-07-26 01:44:00,
2013-07-25 21:49:00,83.1,79.2,29.98,SSW,203,5.4,5.4,88,0.00,,,0.04,1177.0,meteobridge,2013-07-26 01:49:00,
2013-07-25 21:54:00,83.1,79.2,29.98,SW,225,4.5,4.5,88,0.00,,,0.04,1177.0,meteobridge,2013-07-26 01:54:00,
2013-07-25 21:59:00,83.1,79.2,29.98,South,180,6.9,6.9,88,0.00,,,0.04,1177.0,meteobridge,2013-07-26 01:59:00,
2013-07-25 22:01:00,83.1,79.2,29.99,SW,225,4.5,6.9,88,0.00,,,0.04,1177.0,meteobridge,2013-07-26 02:01:00,
2013-07-25 22:06:00,83.1,79.2,29.99,NNW,338,4.5,9.2,88,0.00,,,0.04,1177.0,meteobridge,2013-07-26 02:06:00,
2013-07-25 22:11:00,83.1,79.2,29.99,SW,225,8.3,8.3,88,0.00,,,0.04,1177.0,meteobridge,2013-07-26 02:11:00,
2013-07-25 22:16:00,83.1,79.2,29.98,South,180,3.8,4.5,88,0.00,,,0.04,1177.0,meteobridge,2013-07-26 02:16:00,
2013-07-25 22:21:00,82.9,79.3,29.99,SW,225,3.8,5.4,89,0.00,,,0.04,1177.0,meteobridge,2013-07-26 02:21:00,
2013-07-25 22:26:00,82.9,79.3,29.99,West,270,6.0,6.0,89,0.00,,,0.04,1177.0,meteobridge,2013-07-26 02:26:00,
2013-07-25 22:32:00,82.9,79.3,29.99,West,270,6.0,6.0,89,0.00,,,0.04,1177.0,meteobridge,2013-07-26 02:32:00,
2013-07-25 22:37:00,82.9,79.3,29.99,South,180,2.2,5.4,89,0.00,,,0.04,1177.0,meteobridge,2013-07-26 02:37:00,
2013-07-25 22:42:00,82.9,79.3,29.99,West,270,6.0,6.0,89,0.00,,,0.04,1177.0,meteobridge,2013-07-26 02:42:00,
2013-07-25 22:47:00,82.9,79.3,29.99,SW,225,3.8,8.3,89,0.00,,,0.04,1177.0,meteobridge,2013-07-26 02:47:00,
2013-07-25 22:52:00,82.9,79.3,29.99,South,180,6.0,6.9,89,0.00,,,0.04,1177.0,meteobridge,2013-07-26 02:52:00,
2013-07-25 22:57:00,82.9,79.3,29.99,West,270,8.3,8.3,89,0.00,,,0.04,1177.0,meteobridge,2013-07-26 02:57:00,
2013-07-25 23:03:00,82.9,79.3,30.00,WNW,293,9.2,9.2,89,0.00,,,0.04,1177.0,meteobridge,2013-07-26 03:03:00,
2013-07-25 23:08:00,83.1,79.5,30.01,SW,225,4.5,4.5,89,0.00,,,0.04,1177.0,meteobridge,2013-07-26 03:08:00,
2013-07-25 23:13:00,82.9,79.3,30.01,SE,135,6.9,8.3,89,0.00,,,0.04,1177.0,meteobridge,2013-07-26 03:13:00,
2013-07-25 23:18:00,82.9,79.3,30.01,SSW,203,6.0,6.9,89,0.00,,,0.04,1177.0,meteobridge,2013-07-26 03:18:00,
2013-07-25 23:23:00,82.9,79.7,30.01,SW,225,5.4,7.6,90,0.00,,,0.04,1177.0,meteobridge,2013-07-26 03:23:00,
2013-07-25 23:28:00,82.9,79.7,30.01,South,180,6.9,6.9,90,0.00,,,0.04,1177.0,meteobridge,2013-07-26 03:28:00,
2013-07-25 23:34:00,82.8,79.5,30.01,SW,225,4.5,5.4,90,0.00,,,0.04,1140.0,meteobridge,2013-07-26 03:34:00,
2013-07-25 23:39:00,82.9,80.1,30.01,SW,225,9.2,9.2,91,0.00,,,0.04,1140.0,meteobridge,2013-07-26 03:39:00,
2013-07-25 23:44:00,82.9,79.7,30.01,SW,225,7.6,7.6,90,0.00,,,0.04,1140.0,meteobridge,2013-07-26 03:44:00,
2013-07-25 23:49:00,82.9,80.1,30.00,South,180,6.9,6.9,91,0.00,,,0.04,1140.0,meteobridge,2013-07-26 03:49:00,
2013-07-25 23:54:00,82.9,80.1,30.01,WSW,248,3.8,3.8,91,0.00,,,0.04,1140.0,meteobridge,2013-07-26 03:54:00,